Aviation Digital Data Service (ADDS)

Output produced by TAFs form (1223 UTC 27 January 2015)
found at http://aviationweather.gov/adds/tafs/
 
KVEL 271120Z 2712/2812 29003KT P6SM BKN250 
     FM271600 14004KT P6SM SCT100 BKN150 
     FM280200 28003KT P6SM BKN100